Time;durP1;ratioP1;P1;durP2;ratioP2;P2;SDS_P1;SDS_P2;PMS_P1;PMS_P2;Temp;Humidity;BMP_temperature;BMP_pressure;BME280_temperature;BME280_humidity;BME280_pressure;Samples;Min_cycle;Max_cycle;Signal;HPM_P1;HPM_P2
2023/08/30 00:02:18;;;;;;;3.97;2.03;;;;;;;12.68;100.00;95276.81;4973804;28;24865;-75
2023/08/30 00:04:44;;;;;;;2.30;2.10;;;;;;;12.65;100.00;95274.44;4991597;28;24444;-75
2023/08/30 00:07:11;;;;;;;4.10;2.10;;;;;;;12.59;100.00;95275.72;4985973;28;24442;-75
2023/08/30 00:09:38;;;;;;;2.65;1.90;;;;;;;12.58;100.00;95275.88;4983785;28;24467;-75
2023/08/30 00:12:05;;;;;;;3.40;2.30;;;;;;;12.54;100.00;95277.88;4992731;28;25012;-75
2023/08/30 00:14:33;;;;;;;3.33;2.20;;;;;;;12.51;100.00;95272.91;4977409;28;24448;-75
2023/08/30 00:17:00;;;;;;;6.00;2.22;;;;;;;12.52;100.00;95278.94;4988278;28;24441;-75
2023/08/30 00:19:26;;;;;;;3.10;1.98;;;;;;;12.49;100.00;95271.38;4981564;28;24436;-75
2023/08/30 00:21:53;;;;;;;3.88;2.40;;;;;;;12.40;100.00;95279.91;4992491;28;24817;-75
2023/08/30 00:24:19;;;;;;;5.30;2.33;;;;;;;12.44;100.00;95270.91;4981443;28;24525;-75
2023/08/30 00:26:46;;;;;;;2.25;2.05;;;;;;;12.43;100.00;95275.28;4988934;28;24443;-75
2023/08/30 00:29:12;;;;;;;4.40;2.47;;;;;;;12.40;100.00;95270.34;4973430;28;24798;-75
2023/08/30 00:31:40;;;;;;;3.72;2.38;;;;;;;12.42;100.00;95271.06;4982337;28;24428;-75
2023/08/30 00:34:07;;;;;;;7.47;2.55;;;;;;;12.30;100.00;95264.19;4978968;28;24964;-75
2023/08/30 00:36:33;;;;;;;6.05;3.00;;;;;;;12.17;100.00;95261.72;4986059;28;24429;-75
2023/08/30 00:39:00;;;;;;;3.25;2.45;;;;;;;12.15;100.00;95257.59;4976557;28;24433;-75
2023/08/30 00:41:26;;;;;;;3.75;2.50;;;;;;;12.13;100.00;95260.31;4980720;28;24456;-75
2023/08/30 00:43:53;;;;;;;6.18;2.80;;;;;;;12.07;100.00;95255.59;4992051;28;24553;-75
2023/08/30 00:46:19;;;;;;;5.53;2.80;;;;;;;12.16;100.00;95259.25;4980414;28;24448;-74
2023/08/30 00:48:48;;;;;;;3.17;2.37;;;;;;;12.21;100.00;95254.53;4973141;28;24434;-75
2023/08/30 00:51:15;;;;;;;4.50;2.55;;;;;;;12.16;100.00;95252.28;4973354;28;24434;-75
2023/08/30 00:53:41;;;;;;;9.17;2.70;;;;;;;12.09;100.00;95256.31;4982492;28;24448;-75
2023/08/30 00:56:08;;;;;;;2.60;2.20;;;;;;;12.17;100.00;95253.94;4978952;28;24441;-75
2023/08/30 00:58:35;;;;;;;11.48;2.90;;;;;;;12.11;100.00;95251.81;4988711;28;24444;-75
2023/08/30 01:01:02;;;;;;;2.90;2.60;;;;;;;12.17;100.00;95243.56;4991994;28;24627;-75
2023/08/30 01:03:28;;;;;;;7.38;2.53;;;;;;;12.14;100.00;95242.97;4991158;28;24441;-75
2023/08/30 01:05:56;;;;;;;2.80;2.55;;;;;;;12.15;100.00;95247.22;4980708;28;24806;-75
2023/08/30 01:08:23;;;;;;;3.95;2.75;;;;;;;12.11;100.00;95241.44;4987531;28;24437;-75
2023/08/30 01:10:58;;;;;;;8.18;2.38;;;;;;;12.08;100.00;95232.09;4973654;28;24437;-74
2023/08/30 01:13:27;;;;;;;7.22;2.58;;;;;;;12.05;100.00;95239.28;4972610;28;24445;-75
2023/08/30 01:15:56;;;;;;;13.05;3.00;;;;;;;12.03;100.00;95242.03;4983061;28;24954;-74
2023/08/30 01:18:26;;;;;;;6.40;2.47;;;;;;;12.05;100.00;95229.78;4976331;28;24466;-75
2023/08/30 01:20:54;;;;;;;10.27;2.53;;;;;;;12.10;100.00;95238.00;4990797;28;24973;-74
2023/08/30 01:23:34;;;;;;;13.32;2.55;;;;;;;12.04;100.00;95229.88;4985367;28;24849;-75
2023/08/30 01:26:09;;;;;;;18.13;2.58;;;;;;;12.04;100.00;95235.06;4983581;28;24441;-75
2023/08/30 01:28:39;;;;;;;27.70;3.55;;;;;;;11.89;100.00;95238.84;4972446;28;24448;-75
2023/08/30 01:31:07;;;;;;;12.67;2.70;;;;;;;11.87;100.00;95238.97;4987959;28;24648;-75
2023/08/30 01:33:34;;;;;;;18.15;2.97;;;;;;;11.77;100.00;95235.38;4989350;28;24444;-75
2023/08/30 01:36:03;;;;;;;14.38;2.47;;;;;;;11.76;100.00;95239.75;4979936;28;24437;-75
2023/08/30 01:38:30;;;;;;;12.68;2.22;;;;;;;11.73;100.00;95229.59;4976307;28;24853;-75
2023/08/30 01:41:00;;;;;;;13.07;2.67;;;;;;;11.80;100.00;95237.75;4974384;28;24460;-75
2023/08/30 01:43:28;;;;;;;7.30;2.40;;;;;;;11.78;100.00;95229.25;4985001;28;24488;-74
2023/08/30 01:45:58;;;;;;;3.22;2.55;;;;;;;11.78;100.00;95227.47;4979821;28;24437;-75
2023/08/30 01:48:27;;;;;;;4.53;2.50;;;;;;;11.78;100.00;95235.25;4985290;28;24432;-75
2023/08/30 01:50:58;;;;;;;2.40;2.20;;;;;;;11.82;100.00;95238.44;4989471;28;24444;-75
2023/08/30 01:53:25;;;;;;;23.92;2.97;;;;;;;11.74;100.00;95235.59;4977380;28;24857;-75
2023/08/30 01:55:52;;;;;;;16.85;2.63;;;;;;;11.62;100.00;95240.78;4990747;28;24441;-75
2023/08/30 01:58:19;;;;;;;21.33;3.03;;;;;;;11.52;100.00;95237.22;4989726;28;24460;-75
2023/08/30 02:00:46;;;;;;;2.45;1.98;;;;;;;11.60;100.00;95232.28;4974464;28;24437;-75
2023/08/30 02:03:15;;;;;;;9.27;2.00;;;;;;;11.57;100.00;95240.31;4989343;28;24444;-75
2023/08/30 02:05:50;;;;;;;16.30;2.80;;;;;;;11.53;100.00;95238.88;4990642;28;24440;-75
2023/08/30 02:08:18;;;;;;;7.07;2.40;;;;;;;11.59;100.00;95237.59;4980697;28;24432;-75
2023/08/30 02:10:52;;;;;;;10.57;3.03;;;;;;;11.52;100.00;95239.00;4987115;28;24447;-75
2023/08/30 02:13:22;;;;;;;10.27;2.77;;;;;;;11.47;100.00;95239.34;4971648;28;24448;-75
2023/08/30 02:15:49;;;;;;;10.35;2.88;;;;;;;11.46;100.00;95242.03;4983043;28;25025;-74
2023/08/30 02:18:17;;;;;;;8.75;2.97;;;;;;;11.39;100.00;95232.13;4982710;28;25170;-75
2023/08/30 02:20:44;;;;;;;6.30;2.75;;;;;;;11.44;100.00;95233.56;4990604;28;24451;-75
2023/08/30 02:23:11;;;;;;;6.28;2.40;;;;;;;11.45;100.00;95230.84;4985021;28;24448;-75
2023/08/30 02:25:37;;;;;;;2.53;2.33;;;;;;;11.56;100.00;95227.44;4984533;28;25045;-75
2023/08/30 02:28:04;;;;;;;5.45;2.63;;;;;;;11.63;100.00;95239.84;4986353;28;24440;-75
2023/08/30 02:30:31;;;;;;;3.13;2.60;;;;;;;11.72;100.00;95229.72;4990081;28;24440;-75
2023/08/30 02:32:57;;;;;;;2.90;2.30;;;;;;;11.76;100.00;95224.19;4987184;28;24809;-75
2023/08/30 02:35:25;;;;;;;5.43;2.50;;;;;;;11.78;100.00;95224.88;4971306;28;24440;-75
2023/08/30 02:37:51;;;;;;;3.63;2.53;;;;;;;11.76;100.00;95223.34;4971476;28;24448;-75
2023/08/30 02:40:18;;;;;;;3.97;2.63;;;;;;;11.80;100.00;95222.19;4981226;28;24425;-75
2023/08/30 02:42:44;;;;;;;7.40;2.40;;;;;;;11.67;100.00;95222.28;4975158;28;24453;-75
2023/08/30 02:45:11;;;;;;;5.80;2.70;;;;;;;11.56;100.00;95227.44;4989060;28;24441;-75
2023/08/30 02:47:37;;;;;;;6.97;2.50;;;;;;;11.55;100.00;95224.03;4984749;28;24539;-75
2023/08/30 02:50:05;;;;;;;13.05;3.00;;;;;;;11.47;100.00;95234.16;4971334;28;24826;-75
2023/08/30 02:52:32;;;;;;;7.68;2.65;;;;;;;11.37;100.00;95233.19;4983484;28;24429;-75
2023/08/30 02:54:59;;;;;;;39.85;3.40;;;;;;;11.11;100.00;95235.09;4973815;28;24999;-75
2023/08/30 02:57:25;;;;;;;19.02;2.65;;;;;;;11.16;100.00;95238.22;4983833;28;24456;-75
2023/08/30 02:59:52;;;;;;;70.13;4.47;;;;;;;11.13;100.00;95230.66;4990234;28;24436;-75
2023/08/30 03:02:18;;;;;;;16.93;2.60;;;;;;;11.15;100.00;95233.94;4990376;28;24456;-75
2023/08/30 03:04:45;;;;;;;8.57;2.65;;;;;;;11.21;100.00;95230.91;4989906;28;25019;-75
2023/08/30 03:07:11;;;;;;;17.33;2.60;;;;;;;11.24;100.00;95235.06;4974266;28;24441;-75
2023/08/30 03:09:40;;;;;;;11.50;2.50;;;;;;;11.21;100.00;95228.31;4990162;28;24432;-75
2023/08/30 03:12:07;;;;;;;2.22;2.03;;;;;;;11.24;100.00;95219.50;4989984;28;24443;-75
2023/08/30 03:14:34;;;;;;;2.50;1.90;;;;;;;11.28;100.00;95219.16;4977432;28;24444;-75
2023/08/30 03:17:00;;;;;;;9.18;2.50;;;;;;;11.34;100.00;95225.63;4970988;28;24976;-74
2023/08/30 03:19:26;;;;;;;8.30;2.35;;;;;;;11.24;100.00;95225.50;4970963;28;24456;-75
2023/08/30 03:21:53;;;;;;;21.27;2.75;;;;;;;11.27;100.00;95221.84;4974587;28;25008;-75
2023/08/30 03:24:19;;;;;;;28.07;2.57;;;;;;;11.24;100.00;95224.69;4981250;28;24444;-74
2023/08/30 03:26:47;;;;;;;34.80;3.10;;;;;;;11.21;100.00;95225.72;4989948;28;24442;-75
2023/08/30 03:29:14;;;;;;;3.17;2.15;;;;;;;11.29;100.00;95219.97;4972544;28;25038;-75
2023/08/30 03:31:40;;;;;;;24.85;2.65;;;;;;;11.22;100.00;95221.38;4970898;28;24440;-75
2023/08/30 03:34:07;;;;;;;2.88;2.47;;;;;;;11.29;100.00;95218.19;4970974;28;24471;-75
2023/08/30 03:36:33;;;;;;;3.55;2.72;;;;;;;11.37;100.00;95221.03;4970943;28;24426;-74
2023/08/30 03:39:00;;;;;;;18.98;2.80;;;;;;;11.22;100.00;95226.53;4986632;28;24456;-74
2023/08/30 03:41:26;;;;;;;17.75;2.85;;;;;;;11.07;100.00;95216.38;4990695;28;24805;-75
2023/08/30 03:43:54;;;;;;;7.95;3.10;;;;;;;11.13;100.00;95226.28;4993727;28;24436;-74
2023/08/30 03:46:21;;;;;;;5.60;2.55;;;;;;;11.10;100.00;95220.50;4993602;28;24424;-75
2023/08/30 03:48:47;;;;;;;6.68;2.50;;;;;;;11.15;100.00;95210.63;4979982;28;24444;-74
2023/08/30 03:51:14;;;;;;;5.20;2.90;;;;;;;11.10;100.00;95223.91;4975773;28;24422;-74
2023/08/30 03:53:40;;;;;;;6.13;2.85;;;;;;;11.10;100.00;95216.16;4993554;28;24448;-74
2023/08/30 03:56:07;;;;;;;4.93;2.40;;;;;;;11.07;100.00;95225.91;4993241;28;24432;-75
2023/08/30 03:58:34;;;;;;;2.90;2.40;;;;;;;11.02;100.00;95228.03;4988523;28;24495;-74
2023/08/30 04:01:02;;;;;;;5.60;2.50;;;;;;;11.04;100.00;95228.72;4993348;28;24959;-74
2023/08/30 04:03:28;;;;;;;2.83;2.25;;;;;;;11.04;100.00;95228.72;4993387;28;24453;-74
2023/08/30 04:05:56;;;;;;;4.15;2.28;;;;;;;11.00;100.00;95228.13;4982196;28;24477;-74
2023/08/30 04:08:23;;;;;;;2.47;2.28;;;;;;;11.07;100.00;95226.72;4973986;28;24426;-74
2023/08/30 04:10:53;;;;;;;2.58;2.25;;;;;;;11.12;100.00;95231.56;4990270;28;24436;-74
2023/08/30 04:13:20;;;;;;;2.23;2.03;;;;;;;11.17;100.00;95223.47;4979457;28;24461;-74
2023/08/30 04:15:46;;;;;;;3.17;2.10;;;;;;;11.23;100.00;95230.78;4992566;28;24423;-74
2023/08/30 04:18:14;;;;;;;2.40;2.13;;;;;;;11.21;100.00;95224.91;4973449;28;24953;-74
2023/08/30 04:20:45;;;;;;;2.60;2.40;;;;;;;11.18;100.00;95228.53;4973694;28;24429;-74
2023/08/30 04:23:12;;;;;;;3.63;2.33;;;;;;;11.33;100.00;95222.22;4973599;28;24478;-75
2023/08/30 04:25:38;;;;;;;3.22;2.15;;;;;;;11.27;100.00;95219.25;4973179;28;24945;-74
2023/08/30 04:28:05;;;;;;;3.97;1.95;;;;;;;11.28;100.00;95226.94;4973649;28;24421;-74
2023/08/30 04:30:32;;;;;;;2.70;2.20;;;;;;;11.35;100.00;95224.72;4973843;28;24413;-74
2023/08/30 04:32:59;;;;;;;3.90;2.10;;;;;;;11.33;100.00;95214.44;4973282;28;24464;-75
2023/08/30 04:35:27;;;;;;;3.08;1.98;;;;;;;11.32;100.00;95217.16;4973272;28;24529;-74
2023/08/30 04:37:54;;;;;;;3.67;2.30;;;;;;;11.28;100.00;95218.31;4991101;28;24480;-74
2023/08/30 04:40:20;;;;;;;2.67;2.40;;;;;;;11.27;100.00;95216.66;4992462;28;24436;-75
2023/08/30 04:42:47;;;;;;;1.98;1.88;;;;;;;11.22;100.00;95211.81;4975964;28;24453;-74
2023/08/30 04:45:13;;;;;;;3.08;2.28;;;;;;;11.22;100.00;95214.41;4972723;28;24434;-74
2023/08/30 04:47:39;;;;;;;4.03;2.47;;;;;;;11.14;100.00;95214.16;4973352;28;24456;-74
2023/08/30 04:50:07;;;;;;;2.50;2.30;;;;;;;11.11;100.00;95216.97;4974514;28;24422;-75
2023/08/30 04:52:35;;;;;;;3.75;2.65;;;;;;;11.21;100.00;95214.53;4991556;28;24444;-74
2023/08/30 04:55:02;;;;;;;2.72;2.50;;;;;;;11.19;100.00;95219.81;4991611;28;24437;-74
2023/08/30 04:57:29;;;;;;;2.90;2.22;;;;;;;11.22;100.00;95226.53;4992466;28;24416;-75
2023/08/30 04:59:56;;;;;;;2.47;2.28;;;;;;;11.21;100.00;95211.94;4975186;28;24984;-74
2023/08/30 05:02:22;;;;;;;3.40;2.33;;;;;;;11.22;100.00;95223.94;4992210;28;24445;-75
2023/08/30 05:04:49;;;;;;;2.65;2.20;;;;;;;11.25;100.00;95216.78;4992055;28;24428;-73
2023/08/30 05:07:16;;;;;;;2.80;2.00;;;;;;;11.14;100.00;95225.34;4979683;28;24537;-73
2023/08/30 05:09:43;;;;;;;1.85;1.75;;;;;;;11.22;100.00;95224.78;4972663;28;24516;-73
2023/08/30 05:12:10;;;;;;;2.60;2.40;;;;;;;11.09;100.00;95229.22;4987951;28;24433;-73
2023/08/30 05:14:36;;;;;;;2.15;1.95;;;;;;;11.17;100.00;95226.91;4977753;28;24452;-75
2023/08/30 05:17:03;;;;;;;2.03;1.85;;;;;;;11.17;100.00;95223.47;4991647;28;24952;-73
2023/08/30 05:19:30;;;;;;;2.80;2.20;;;;;;;11.25;100.00;95226.31;4991881;28;24428;-74
2023/08/30 05:21:56;;;;;;;4.22;2.03;;;;;;;11.29;100.00;95213.00;4975502;28;24480;-75
2023/08/30 05:24:23;;;;;;;2.78;2.42;;;;;;;11.28;100.00;95215.72;4972078;28;24521;-74
2023/08/30 05:26:51;;;;;;;2.03;1.92;;;;;;;11.25;100.00;95215.97;4972361;28;24428;-74
2023/08/30 05:29:17;;;;;;;6.50;2.22;;;;;;;11.33;100.00;95224.81;4983150;28;24444;-74
2023/08/30 05:31:44;;;;;;;2.30;2.10;;;;;;;11.31;100.00;95228.44;4991918;28;24420;-74
2023/08/30 05:34:11;;;;;;;3.25;2.20;;;;;;;11.32;100.00;95230.94;4989204;28;24448;-75
2023/08/30 05:36:37;;;;;;;2.30;1.98;;;;;;;11.34;100.00;95230.81;4995425;28;24443;-75
2023/08/30 05:39:04;;;;;;;3.78;1.88;;;;;;;11.26;100.00;95218.41;4994499;28;24459;-75
2023/08/30 05:41:31;;;;;;;3.03;2.13;;;;;;;11.44;100.00;95218.00;4979122;28;24441;-74
2023/08/30 05:43:59;;;;;;;4.60;2.10;;;;;;;11.48;100.00;95215.06;4987148;28;24578;-74
2023/08/30 05:46:25;;;;;;;3.28;2.05;;;;;;;11.47;100.00;95218.59;4974533;28;24436;-74
2023/08/30 05:48:53;;;;;;;2.33;2.13;;;;;;;11.41;100.00;95218.22;4980873;28;24429;-74
2023/08/30 05:51:20;;;;;;;2.20;1.90;;;;;;;11.44;100.00;95213.63;4971643;28;24444;-74
2023/08/30 05:53:47;;;;;;;2.30;2.03;;;;;;;11.43;100.00;95218.94;4980957;28;24913;-74
2023/08/30 05:56:13;;;;;;;2.90;2.60;;;;;;;11.39;100.00;95213.16;4977047;28;24448;-75
2023/08/30 05:58:40;;;;;;;3.72;2.50;;;;;;;11.43;100.00;95221.53;4986195;28;24444;-74
2023/08/30 06:01:08;;;;;;;4.05;2.80;;;;;;;11.53;100.00;95223.34;4989879;28;24444;-75
2023/08/30 06:03:35;;;;;;;2.37;1.90;;;;;;;11.57;100.00;95218.75;4977879;28;24519;-75
2023/08/30 06:06:01;;;;;;;2.13;1.92;;;;;;;11.51;100.00;95212.22;4987718;28;24446;-75
2023/08/30 06:08:28;;;;;;;2.13;1.92;;;;;;;11.49;100.00;95221.06;4971530;28;24853;-74
2023/08/30 06:10:54;;;;;;;3.40;2.10;;;;;;;11.46;100.00;95229.06;4981088;28;24437;-75
2023/08/30 06:13:21;;;;;;;2.45;1.90;;;;;;;11.55;100.00;95229.22;4979393;28;24522;-74
2023/08/30 06:15:51;;;;;;;2.20;2.00;;;;;;;11.49;100.00;95227.06;4990451;28;24503;-75
2023/08/30 06:18:19;;;;;;;2.17;1.93;;;;;;;11.58;100.00;95233.34;4988184;28;24512;-75
2023/08/30 06:20:45;;;;;;;3.50;2.13;;;;;;;11.58;100.00;95230.75;4986942;28;24992;-74
2023/08/30 06:23:12;;;;;;;2.20;1.80;;;;;;;11.73;100.00;95227.00;4974572;28;24460;-74
2023/08/30 06:25:39;;;;;;;2.30;2.10;;;;;;;11.86;100.00;95227.75;4979637;28;24439;-74
2023/08/30 06:28:06;;;;;;;2.67;2.13;;;;;;;11.88;100.00;95226.81;4990352;28;24445;-73
2023/08/30 06:30:32;;;;;;;2.20;2.00;;;;;;;11.79;100.00;95229.13;4975376;28;24440;-73
2023/08/30 06:33:00;;;;;;;2.67;2.30;;;;;;;11.67;100.00;95224.84;4983601;28;24444;-73
2023/08/30 06:35:27;;;;;;;2.10;1.90;;;;;;;11.60;100.00;95221.06;4971155;28;24465;-74
2023/08/30 06:37:55;;;;;;;2.78;1.70;;;;;;;11.74;100.00;95225.22;4985338;28;24436;-76
2023/08/30 06:40:22;;;;;;;2.50;2.00;;;;;;;11.69;100.00;95229.94;4982372;28;24808;-76
2023/08/30 06:42:48;;;;;;;4.05;2.22;;;;;;;11.54;100.00;95227.56;4979694;28;24455;-76
2023/08/30 06:45:16;;;;;;;3.60;1.88;;;;;;;11.70;100.00;95234.19;4990049;28;24968;-76
2023/08/30 06:47:42;;;;;;;1.90;1.70;;;;;;;11.67;100.00;95232.66;4981094;28;24437;-76
2023/08/30 06:50:10;;;;;;;2.30;1.92;;;;;;;11.65;100.00;95231.94;4986769;28;24505;-75
2023/08/30 06:52:38;;;;;;;5.00;2.22;;;;;;;11.67;100.00;95232.66;4985268;28;24841;-75
2023/08/30 06:55:05;;;;;;;2.50;1.80;;;;;;;11.67;100.00;95232.66;4974929;28;24452;-75
2023/08/30 06:57:31;;;;;;;6.90;1.92;;;;;;;11.69;100.00;95233.38;4989327;28;24433;-75
2023/08/30 06:59:59;;;;;;;2.35;1.80;;;;;;;11.65;100.00;95228.53;4984114;28;24984;-75
2023/08/30 07:02:27;;;;;;;2.25;1.80;;;;;;;11.78;100.00;95227.47;4977645;28;24443;-75
2023/08/30 07:04:54;;;;;;;2.50;1.70;;;;;;;11.95;100.00;95221.03;4985805;28;24441;-75
2023/08/30 07:07:20;;;;;;;3.03;1.70;;;;;;;12.08;100.00;95223.50;4989518;28;24445;-75
2023/08/30 07:09:48;;;;;;;2.03;1.90;;;;;;;12.17;100.00;95238.38;4985645;28;24440;-74
2023/08/30 07:12:14;;;;;;;4.65;2.10;;;;;;;12.06;100.00;95228.00;4971215;28;24445;-74
2023/08/30 07:14:41;;;;;;;2.63;1.90;;;;;;;12.08;100.00;95226.91;4982911;28;24441;-75
2023/08/30 07:17:08;;;;;;;2.88;2.20;;;;;;;12.07;100.00;95220.06;4991838;28;24805;-74
2023/08/30 07:19:34;;;;;;;2.10;1.90;;;;;;;12.23;100.00;95222.28;4975143;28;24437;-75
2023/08/30 07:22:00;;;;;;;2.72;1.90;;;;;;;12.23;100.00;95216.28;4974615;28;24430;-75
2023/08/30 07:24:27;;;;;;;2.42;1.80;;;;;;;12.28;100.00;95212.41;4984066;28;24453;-75
2023/08/30 07:26:55;;;;;;;5.05;2.10;;;;;;;12.22;100.00;95218.06;4981590;28;24440;-76
2023/08/30 07:29:21;;;;;;;2.65;2.03;;;;;;;12.33;100.00;95214.63;4984116;28;24981;-77
2023/08/30 07:31:51;;;;;;;2.90;1.92;;;;;;;12.54;100.00;95218.13;4980861;28;24444;-77
2023/08/30 07:34:17;;;;;;;3.00;1.90;;;;;;;12.65;100.00;95225.06;4989464;28;24460;-73
2023/08/30 07:36:44;;;;;;;3.00;1.83;;;;;;;12.75;100.00;95225.97;5019315;28;24619;-76
2023/08/30 07:39:10;;;;;;;2.17;1.90;;;;;;;12.78;100.00;95228.31;5010489;28;24433;-78
2023/08/30 07:41:37;;;;;;;3.67;2.30;;;;;;;12.68;100.00;95227.44;4985110;28;24484;-78
2023/08/30 07:44:05;;;;;;;2.90;2.00;;;;;;;12.76;100.00;95224.22;5010028;28;24471;-78
2023/08/30 07:46:32;;;;;;;3.38;2.00;;;;;;;12.82;100.00;95219.34;5002024;28;24433;-77
2023/08/30 07:48:59;;;;;;;2.58;2.10;;;;;;;12.89;100.00;95217.06;4981343;28;24813;-74
2023/08/30 07:51:25;;;;;;;3.58;2.40;;;;;;;13.09;100.00;95210.28;4993144;28;24451;-74
2023/08/30 07:53:52;;;;;;;2.75;1.83;;;;;;;13.22;100.00;95205.72;4993109;28;24437;-74
2023/08/30 07:56:18;;;;;;;2.53;1.70;;;;;;;13.20;100.00;95201.56;4992959;28;24437;-75
2023/08/30 07:58:45;;;;;;;3.28;2.10;;;;;;;13.36;100.00;95212.41;4977208;28;24988;-76
2023/08/30 08:01:13;;;;;;;5.35;2.47;;;;;;;13.37;100.00;95208.03;4993927;28;24436;-77
2023/08/30 08:03:40;;;;;;;2.67;2.00;;;;;;;13.43;100.00;95218.75;4984123;28;24461;-76
2023/08/30 08:06:07;;;;;;;2.60;2.10;;;;;;;13.56;100.00;95208.97;4974052;28;24537;-76
2023/08/30 08:08:34;;;;;;;2.30;2.08;;;;;;;13.44;100.00;95210.00;4988698;28;24432;-75
2023/08/30 08:11:00;;;;;;;3.38;2.28;;;;;;;13.37;100.00;95215.84;4997470;28;25302;-75
2023/08/30 08:13:27;;;;;;;2.33;2.13;;;;;;;13.35;100.00;95210.78;4992905;28;24436;-75
2023/08/30 08:15:56;;;;;;;3.28;2.22;;;;;;;13.34;100.00;95206.50;4991151;28;24441;-76
2023/08/30 08:18:24;;;;;;;2.80;2.10;;;;;;;13.36;100.00;95212.41;4978939;28;24518;-75
2023/08/30 08:20:51;;;;;;;2.00;1.80;;;;;;;13.49;100.00;95204.41;4974763;28;24437;-75
2023/08/30 08:23:17;;;;;;;3.05;2.45;;;;;;;13.51;100.00;95211.13;4983284;28;24484;-75
2023/08/30 08:25:44;;;;;;;3.10;2.33;;;;;;;13.60;100.00;95213.91;4986080;28;24441;-76
2023/08/30 08:28:10;;;;;;;3.03;2.27;;;;;;;13.68;100.00;95217.53;4976601;28;25251;-76
2023/08/30 08:30:37;;;;;;;3.88;2.30;;;;;;;13.73;100.00;95217.97;4976569;28;24443;-76
2023/08/30 08:33:04;;;;;;;3.35;2.40;;;;;;;13.77;100.00;95215.94;4992408;28;24444;-75
2023/08/30 08:35:32;;;;;;;2.87;2.50;;;;;;;13.81;100.00;95217.31;4982652;28;24840;-76
2023/08/30 08:37:58;;;;;;;2.50;2.05;;;;;;;14.08;100.00;95219.34;4987212;28;24440;-76
2023/08/30 08:40:25;;;;;;;2.58;2.03;;;;;;;14.14;100.00;95212.81;4976010;28;24430;-76
2023/08/30 08:42:55;;;;;;;2.75;2.10;;;;;;;14.39;100.00;95217.56;4973465;28;24445;-75
2023/08/30 08:45:23;;;;;;;2.42;2.17;;;;;;;14.57;100.00;95215.13;4973014;28;24444;-75
2023/08/30 08:47:50;;;;;;;4.57;2.40;;;;;;;14.72;100.00;95220.78;4976114;28;24440;-79
2023/08/30 08:50:18;;;;;;;3.40;2.30;;;;;;;14.63;100.00;95219.00;4976500;28;24996;-77
2023/08/30 08:52:47;;;;;;;3.55;2.45;;;;;;;14.69;100.00;95226.28;4990171;28;24441;-77
2023/08/30 08:55:14;;;;;;;2.72;2.10;;;;;;;14.64;100.00;95218.84;4989099;28;24448;-77
2023/08/30 08:57:41;;;;;;;3.60;2.20;;;;;;;14.66;100.00;95226.56;4973160;28;24437;-76
2023/08/30 09:00:09;;;;;;;3.08;2.10;;;;;;;14.96;100.00;95225.63;4973913;28;24457;-82
2023/08/30 09:02:36;;;;;;;3.60;2.10;;;;;;;15.17;100.00;95228.94;4984441;28;24814;-75
2023/08/30 09:05:04;;;;;;;4.23;1.90;;;;;;;15.46;100.00;95222.84;4972637;28;25027;-77
2023/08/30 09:07:32;;;;;;;3.80;2.40;;;;;;;15.79;100.00;95228.59;4975925;28;24424;-78
2023/08/30 09:10:00;;;;;;;2.40;2.10;;;;;;;15.77;100.00;95228.75;4986341;28;25095;-76
2023/08/30 09:12:26;;;;;;;3.80;2.28;;;;;;;15.90;100.00;95221.41;4989039;28;24463;-75
2023/08/30 09:14:56;;;;;;;2.58;2.15;;;;;;;16.04;100.00;95220.16;4990728;28;24437;-76
2023/08/30 09:17:23;;;;;;;2.92;2.40;;;;;;;16.28;100.00;95224.03;4977138;28;24464;-77
2023/08/30 09:19:50;;;;;;;2.72;2.10;;;;;;;16.65;100.00;95224.00;4983905;28;24460;-75
2023/08/30 09:22:16;;;;;;;1.98;1.88;;;;;;;16.89;100.00;95224.28;4972154;28;24507;-76
2023/08/30 09:24:43;;;;;;;6.97;2.47;;;;;;;16.95;100.00;95222.06;4977708;28;24464;-75
2023/08/30 09:27:11;;;;;;;3.17;2.75;;;;;;;16.88;100.00;95221.81;4983606;28;24438;-74
2023/08/30 09:29:37;;;;;;;3.20;2.55;;;;;;;17.12;100.00;95224.66;4972946;28;24806;-74
2023/08/30 09:32:04;;;;;;;3.00;2.40;;;;;;;17.47;100.00;95216.94;4972925;28;24852;-75
2023/08/30 09:34:31;;;;;;;3.05;2.17;;;;;;;17.50;100.00;95212.22;4991752;28;24460;-76
2023/08/30 09:36:59;;;;;;;4.95;2.70;;;;;;;17.52;100.00;95215.50;4976826;28;24452;-75
2023/08/30 09:39:25;;;;;;;3.17;2.45;;;;;;;17.57;100.00;95223.72;4971590;28;24532;-76
2023/08/30 09:41:52;;;;;;;4.45;2.65;;;;;;;17.73;100.00;95220.41;4972519;28;24417;-75
2023/08/30 09:44:21;;;;;;;3.20;2.50;;;;;;;17.81;100.00;95214.44;4972944;28;24810;-76
2023/08/30 09:46:51;;;;;;;4.00;2.40;;;;;;;17.84;100.00;95211.50;4972420;28;24421;-76
2023/08/30 09:49:20;;;;;;;3.08;2.25;;;;;;;17.87;100.00;95204.16;4972609;28;24433;-76
2023/08/30 09:51:48;;;;;;;3.50;2.28;;;;;;;17.34;100.00;95204.22;4973325;28;24504;-79
2023/08/30 09:54:16;;;;;;;3.15;2.10;;;;;;;17.54;100.00;95207.47;4988375;28;24508;-77
2023/08/30 09:56:44;;;;;;;5.50;2.65;;;;;;;17.97;100.00;95198.78;4987531;28;24801;-77
2023/08/30 09:59:12;;;;;;;4.50;2.10;;;;;;;18.17;100.00;95195.94;4977558;28;24993;-76
2023/08/30 10:01:40;;;;;;;1.92;1.70;;;;;;;18.26;100.00;95195.81;4973163;28;24430;-75
2023/08/30 10:04:08;;;;;;;2.85;2.00;;;;;;;18.31;100.00;95195.34;4973559;28;24457;-74
2023/08/30 10:06:36;;;;;;;3.85;2.00;;;;;;;18.45;100.00;95191.31;4973311;28;24440;-74
2023/08/30 10:09:04;;;;;;;2.60;2.13;;;;;;;18.25;100.00;95188.13;4981684;28;24513;-73
2023/08/30 10:11:34;;;;;;;2.17;1.90;;;;;;;17.98;100.00;95189.94;4977097;28;24445;-74
2023/08/30 10:14:01;;;;;;;2.60;2.10;;;;;;;17.95;100.00;95178.97;4973008;28;24493;-73
2023/08/30 10:16:36;;;;;;;2.38;2.17;;;;;;;18.11;100.00;95172.00;4976862;28;24801;-74
2023/08/30 10:19:10;;;;;;;3.15;2.05;;;;;;;18.16;100.00;95175.97;4984967;28;25091;-73
2023/08/30 10:21:37;;;;;;;2.47;1.83;;;;;;;17.65;100.00;95175.84;4991069;28;24436;-74
2023/08/30 10:24:07;;;;;;;2.70;1.90;;;;;;;17.41;100.00;95169.44;4989095;28;24464;-73
2023/08/30 10:26:35;;;;;;;4.85;1.95;;;;;;;17.32;100.00;95173.00;4977362;28;24440;-74
2023/08/30 10:29:03;;;;;;;2.70;1.92;;;;;;;17.31;100.00;95176.56;4990817;28;24429;-73
2023/08/30 10:31:29;;;;;;;4.28;2.25;;;;;;;17.04;100.00;95180.09;4990528;28;24444;-75
2023/08/30 10:33:56;;;;;;;4.30;2.50;;;;;;;16.58;100.00;95179.31;4975393;28;24535;-75
2023/08/30 10:36:24;;;;;;;5.67;3.23;;;;;;;16.25;100.00;95190.38;4985937;28;24601;-75
2023/08/30 10:38:51;;;;;;;12.10;3.30;;;;;;;15.65;100.00;95190.72;4971719;28;24437;-75
2023/08/30 10:41:22;;;;;;;6.20;2.70;;;;;;;15.29;100.00;95202.72;4982525;28;24445;-76
2023/08/30 10:43:53;;;;;;;4.40;2.53;;;;;;;15.41;100.00;95199.81;4999541;28;24453;-77
2023/08/30 10:46:31;;;;;;;3.55;2.30;;;;;;;15.70;100.00;95202.38;5003540;28;24831;-77
2023/08/30 10:48:57;;;;;;;8.15;3.30;;;;;;;15.95;100.00;95202.72;5010650;28;24415;-77
2023/08/30 10:51:37;;;;;;;4.65;2.92;;;;;;;15.54;100.00;95202.13;4993270;28;24868;-77
2023/08/30 10:54:11;;;;;;;4.68;2.65;;;;;;;15.24;100.00;95195.31;4977610;28;24444;-77
2023/08/30 10:56:47;;;;;;;3.23;2.60;;;;;;;15.03;100.00;95205.06;4975075;28;24421;-77
2023/08/30 10:59:18;;;;;;;3.00;2.67;;;;;;;15.04;100.00;95206.69;4995847;28;24480;-78
2023/08/30 11:01:46;;;;;;;3.35;3.05;;;;;;;15.37;100.00;95185.38;5011323;28;24429;-77
2023/08/30 11:04:13;;;;;;;5.27;3.27;;;;;;;15.42;100.00;95190.19;5014495;28;24493;-77
2023/08/30 11:06:43;;;;;;;3.08;2.75;;;;;;;15.44;100.00;95188.28;5000064;28;25042;-77
2023/08/30 11:09:10;;;;;;;5.75;3.15;;;;;;;15.47;100.00;95193.22;4994055;28;24444;-77
2023/08/30 11:11:38;;;;;;;3.30;2.70;;;;;;;15.27;100.00;95192.41;4994236;28;24449;-77
2023/08/30 11:14:05;;;;;;;9.07;2.70;;;;;;;15.20;100.00;95186.09;4986045;28;25010;-77
2023/08/30 11:16:34;;;;;;;2.42;2.22;;;;;;;15.16;100.00;95179.50;4985695;28;25033;-77
2023/08/30 11:19:01;;;;;;;3.60;2.33;;;;;;;15.08;100.00;95185.41;4994139;28;24491;-75
2023/08/30 11:21:28;;;;;;;2.92;2.65;;;;;;;15.14;100.00;95171.81;4992892;28;24532;-74
2023/08/30 11:23:56;;;;;;;3.10;2.53;;;;;;;15.22;100.00;95169.34;4986741;28;24465;-74
2023/08/30 11:26:22;;;;;;;4.03;2.67;;;;;;;15.35;100.00;95170.81;4984143;28;24440;-76